Time;durP1;ratioP1;P1;durP2;ratioP2;P2;SDS_P1;SDS_P2;PMS_P1;PMS_P2;Temp;Humidity;BMP_temperature;BMP_pressure;BME280_temperature;BME280_humidity;BME280_pressure;Samples;Min_cycle;Max_cycle;Signal;HPM_P1;HPM_P2
2024/04/07 00:00:51;;;;;;;42.67;23.65;;;5.00;96.70;;;;;;4994010;28;20017;-79
2024/04/07 00:03:17;;;;;;;45.15;24.67;;;5.00;96.80;;;;;;4994226;28;20023;-78
2024/04/07 00:05:44;;;;;;;38.65;22.83;;;5.10;96.80;;;;;;4994086;28;20026;-78
2024/04/07 00:08:10;;;;;;;37.17;23.50;;;5.10;96.80;;;;;;4995743;28;20018;-79
2024/04/07 00:10:37;;;;;;;41.85;25.25;;;5.10;96.80;;;;;;4991464;28;20283;-80
2024/04/07 00:13:04;;;;;;;35.83;23.42;;;5.10;96.80;;;;;;4993677;28;20025;-78
2024/04/07 00:15:30;;;;;;;37.10;24.00;;;5.10;96.90;;;;;;4994078;28;20038;-79
2024/04/07 00:17:56;;;;;;;37.03;23.83;;;5.00;97.00;;;;;;4993662;28;20029;-80
2024/04/07 00:20:21;;;;;;;36.25;20.77;;;5.10;97.20;;;;;;5009698;28;20529;-78
2024/04/07 00:22:47;;;;;;;34.50;21.10;;;5.20;97.40;;;;;;5013790;28;20018;-79
2024/04/07 00:25:13;;;;;;;37.30;23.70;;;5.30;97.40;;;;;;5013311;28;20452;-80
2024/04/07 00:27:39;;;;;;;35.83;23.35;;;5.30;97.30;;;;;;5013253;28;20049;-79
2024/04/07 00:30:06;;;;;;;40.10;23.85;;;5.30;97.30;;;;;;5013011;28;20025;-79
2024/04/07 00:32:31;;;;;;;36.38;23.50;;;5.30;97.30;;;;;;5013523;28;20026;-79
2024/04/07 00:34:57;;;;;;;33.17;22.67;;;5.30;97.30;;;;;;5013255;28;20049;-79
2024/04/07 00:37:26;;;;;;;38.75;23.63;;;5.30;97.40;;;;;;4995591;28;20119;-79
2024/04/07 00:39:52;;;;;;;34.90;23.35;;;5.40;97.40;;;;;;4995170;28;20403;-79
2024/04/07 00:42:18;;;;;;;31.25;23.08;;;5.40;97.30;;;;;;5012934;28;20025;-81
2024/04/07 00:44:45;;;;;;;32.72;22.98;;;5.30;97.30;;;;;;5008557;28;20029;-80
2024/04/07 00:47:11;;;;;;;37.03;23.88;;;5.40;97.40;;;;;;5011699;28;20022;-80
2024/04/07 00:49:39;;;;;;;33.83;21.20;;;5.40;97.40;;;;;;4995259;28;20117;-80
2024/04/07 00:52:05;;;;;;;;;;;5.40;97.40;;;;;;5013363;28;20030;-80
2024/04/07 00:54:31;;;;;;;32.92;22.25;;;5.50;97.30;;;;;;5012906;28;19909;-79
2024/04/07 00:56:56;;;;;;;37.35;22.90;;;5.50;97.40;;;;;;4994976;28;20025;-79
2024/04/07 00:59:23;;;;;;;35.20;21.95;;;5.50;97.40;;;;;;4995395;28;20034;-78
2024/04/07 01:01:48;;;;;;;35.72;22.13;;;5.50;97.40;;;;;;5007228;28;20045;-81
2024/04/07 01:04:14;;;;;;;30.77;22.13;;;5.40;97.40;;;;;;5012267;28;20076;-79
2024/04/07 01:06:40;;;;;;;38.25;24.55;;;5.50;97.60;;;;;;5012383;28;20043;-80
2024/04/07 01:09:07;;;;;;;36.78;21.17;;;5.50;97.60;;;;;;5012647;28;20022;-79
2024/04/07 01:11:32;;;;;;;30.75;20.23;;;5.60;97.60;;;;;;5012306;28;20112;-76
2024/04/07 01:13:58;;;;;;;36.65;21.88;;;5.60;97.60;;;;;;5011851;28;20523;-78
2024/04/07 01:16:24;;;;;;;34.42;21.13;;;5.60;97.60;;;;;;5012339;28;20128;-78
2024/04/07 01:18:50;;;;;;;32.35;23.50;;;5.60;97.70;;;;;;5012053;28;20053;-79
2024/04/07 01:21:15;;;;;;;32.60;22.80;;;5.60;97.70;;;;;;5011823;28;20440;-79
2024/04/07 01:23:41;;;;;;;29.25;20.52;;;5.70;97.70;;;;;;5011381;28;20509;-78
2024/04/07 01:26:07;;;;;;;30.17;21.27;;;5.70;97.70;;;;;;4994857;28;20038;-79
2024/04/07 01:28:33;;;;;;;32.60;23.00;;;5.70;97.70;;;;;;5012649;28;20025;-79
2024/04/07 01:30:59;;;;;;;35.75;23.92;;;5.70;97.80;;;;;;5012580;28;20518;-79
2024/04/07 01:33:25;;;;;;;33.80;21.20;;;5.70;97.80;;;;;;5012338;28;20498;-78
2024/04/07 01:35:50;;;;;;;33.75;21.60;;;5.70;97.80;;;;;;5012589;28;20033;-78
2024/04/07 01:38:16;;;;;;;34.58;21.95;;;5.70;97.80;;;;;;5012172;28;20025;-78
2024/04/07 01:40:44;;;;;;;32.83;22.60;;;5.70;97.90;;;;;;5009968;28;20085;-78
2024/04/07 01:43:10;;;;;;;31.77;22.40;;;5.70;98.00;;;;;;5007621;28;20036;-79
2024/04/07 01:45:36;;;;;;;33.80;22.02;;;5.70;98.00;;;;;;5014609;28;20034;-79
2024/04/07 01:48:02;;;;;;;32.47;20.45;;;5.80;98.00;;;;;;5014115;28;20100;-78
2024/04/07 01:50:27;;;;;;;32.03;21.25;;;5.80;98.10;;;;;;5011983;28;20041;-80
2024/04/07 01:52:54;;;;;;;32.65;22.52;;;5.80;98.20;;;;;;5012144;28;20030;-80
2024/04/07 01:55:20;;;;;;;32.85;21.05;;;5.80;98.20;;;;;;5012087;28;20033;-79
2024/04/07 01:57:46;;;;;;;34.17;22.38;;;5.80;98.30;;;;;;4992986;28;20018;-79
2024/04/07 02:00:12;;;;;;;34.78;22.90;;;5.90;98.30;;;;;;5012258;28;20039;-79
2024/04/07 02:02:38;;;;;;;32.47;22.70;;;5.90;98.20;;;;;;5012172;28;20014;-80
2024/04/07 02:05:05;;;;;;;35.30;23.92;;;5.90;98.20;;;;;;5011794;28;20494;-79
2024/04/07 02:07:34;;;;;;;34.47;23.15;;;5.80;98.40;;;;;;5011921;28;20483;-81
2024/04/07 02:10:01;;;;;;;34.22;22.33;;;5.80;98.20;;;;;;5011806;28;20034;-80
2024/04/07 02:12:26;;;;;;;33.90;21.77;;;5.80;98.20;;;;;;5011825;28;20018;-79
2024/04/07 02:14:52;;;;;;;34.65;24.45;;;5.80;98.40;;;;;;4993819;28;20084;-79
2024/04/07 02:17:18;;;;;;;37.15;24.42;;;5.80;98.60;;;;;;5011723;28;20101;-79
2024/04/07 02:19:44;;;;;;;32.22;24.20;;;5.90;98.80;;;;;;5011340;28;20104;-77
2024/04/07 02:22:09;;;;;;;34.95;24.00;;;6.00;98.90;;;;;;5011647;28;20046;-79
2024/04/07 02:24:35;;;;;;;34.58;21.73;;;6.00;98.90;;;;;;5011363;28;20034;-80
2024/04/07 02:27:01;;;;;;;33.42;23.42;;;6.10;98.90;;;;;;5011808;28;20026;-80
2024/04/07 02:29:28;;;;;;;34.70;22.38;;;6.10;98.70;;;;;;4993926;28;20029;-79
2024/04/07 02:31:53;;;;;;;32.37;22.10;;;6.10;98.60;;;;;;5011319;28;20030;-79
2024/04/07 02:34:19;;;;;;;36.38;23.48;;;6.10;98.60;;;;;;5012312;28;20022;-80
2024/04/07 02:36:45;;;;;;;37.08;23.13;;;6.00;98.60;;;;;;5015062;28;20076;-79
2024/04/07 02:39:13;;;;;;;30.48;22.30;;;6.00;98.60;;;;;;5015166;28;20030;-80
2024/04/07 02:41:44;;;;;;;34.40;24.02;;;6.10;98.60;;;;;;5015024;28;20450;-78
2024/04/07 02:44:10;;;;;;;32.05;22.30;;;6.00;98.60;;;;;;5014896;28;20021;-80
2024/04/07 02:49:20;;;;;;;33.95;23.95;;;6.10;98.70;;;;;;4988915;28;20079;-78
2024/04/07 02:51:46;;;;;;;35.08;23.83;;;6.10;98.80;;;;;;5001838;28;20034;-80
2024/04/07 02:54:12;;;;;;;38.08;22.55;;;6.00;98.90;;;;;;5014797;28;20018;-81
2024/04/07 02:56:38;;;;;;;33.78;23.25;;;6.10;99.00;;;;;;5014601;28;20026;-78
2024/04/07 02:59:04;;;;;;;32.53;22.15;;;6.10;99.00;;;;;;5014537;28;20045;-80
2024/04/07 03:01:30;;;;;;;36.97;22.48;;;6.10;98.90;;;;;;5014906;28;20022;-78
2024/04/07 03:03:56;;;;;;;35.80;24.67;;;6.10;98.90;;;;;;5014845;28;20112;-80
2024/04/07 03:06:22;;;;;;;35.80;23.30;;;6.20;98.90;;;;;;5014501;28;20050;-79
2024/04/07 03:08:49;;;;;;;35.38;23.73;;;6.20;99.30;;;;;;5014575;28;20021;-80
2024/04/07 03:11:15;;;;;;;32.88;22.70;;;6.20;99.10;;;;;;4997037;28;20030;-81
2024/04/07 03:13:41;;;;;;;30.27;22.88;;;6.30;99.10;;;;;;5014967;28;20487;-79
2024/04/07 03:16:11;;;;;;;34.72;24.40;;;6.30;99.10;;;;;;5014904;28;20490;-79
2024/04/07 03:18:36;;;;;;;31.60;21.40;;;6.30;99.10;;;;;;5014349;28;20076;-80
2024/04/07 03:21:03;;;;;;;31.92;23.45;;;6.40;99.10;;;;;;5014862;28;20022;-81
2024/04/07 03:23:30;;;;;;;37.42;23.45;;;6.40;99.20;;;;;;4997237;28;20113;-80
2024/04/07 03:25:55;;;;;;;32.03;23.65;;;6.40;99.20;;;;;;5009885;28;20385;-79
2024/04/07 03:28:21;;;;;;;33.72;24.20;;;6.50;99.20;;;;;;5012514;28;20113;-78
2024/04/07 03:30:47;;;;;;;36.22;22.83;;;6.60;99.20;;;;;;4995753;28;20058;-79
2024/04/07 03:33:13;;;;;;;32.60;22.50;;;6.60;99.10;;;;;;4996727;28;20235;-79
2024/04/07 03:35:39;;;;;;;34.78;24.75;;;6.60;99.10;;;;;;5014273;28;20022;-80
2024/04/07 03:38:05;;;;;;;39.25;24.33;;;6.70;99.10;;;;;;5014211;28;20033;-79
2024/04/07 03:40:33;;;;;;;35.40;22.92;;;6.70;99.00;;;;;;4996464;28;20486;-79
2024/04/07 03:42:59;;;;;;;33.60;24.05;;;6.80;99.10;;;;;;5013911;28;20045;-80
2024/04/07 03:45:24;;;;;;;34.40;24.08;;;6.80;99.20;;;;;;4996078;28;20132;-80
2024/04/07 03:47:50;;;;;;;33.35;23.90;;;6.90;99.30;;;;;;4989731;28;20028;-80
2024/04/07 03:50:16;;;;;;;34.08;24.05;;;7.00;99.30;;;;;;5013816;28;20114;-79
2024/04/07 03:52:42;;;;;;;33.72;22.13;;;7.10;99.40;;;;;;5013824;28;20029;-79
2024/04/07 03:55:08;;;;;;;39.20;23.55;;;7.20;99.40;;;;;;5013656;28;20485;-80
2024/04/07 03:57:34;;;;;;;33.08;21.98;;;7.30;99.40;;;;;;4996327;28;20037;-79
2024/04/07 03:59:59;;;;;;;32.17;24.13;;;7.30;99.30;;;;;;5013690;28;20022;-79
2024/04/07 04:02:28;;;;;;;32.58;23.42;;;7.50;99.20;;;;;;5010441;28;20068;-79
2024/04/07 04:05:01;;;;;;;32.53;22.85;;;7.60;99.20;;;;;;5011025;28;20372;-79
2024/04/07 04:07:27;;;;;;;29.83;21.70;;;7.70;99.10;;;;;;5013451;28;20018;-80
2024/04/07 04:09:55;;;;;;;33.15;24.13;;;7.80;99.00;;;;;;5013538;28;20033;-82
2024/04/07 04:12:21;;;;;;;;;;;7.90;98.90;;;;;;4996026;28;20025;-80
2024/04/07 04:14:47;;;;;;;33.33;22.25;;;8.00;98.90;;;;;;5013430;28;19960;-81
2024/04/07 04:17:14;;;;;;;35.38;23.27;;;8.00;98.80;;;;;;5013452;28;20053;-80
2024/04/07 04:19:40;;;;;;;30.88;23.23;;;8.10;98.70;;;;;;5008010;28;20056;-80
2024/04/07 04:22:07;;;;;;;30.27;21.17;;;8.20;98.60;;;;;;5013503;28;20026;-81
2024/04/07 04:24:33;;;;;;;36.95;24.48;;;8.30;98.40;;;;;;5012688;28;20034;-79
2024/04/07 04:27:00;;;;;;;28.65;21.25;;;8.40;98.10;;;;;;5013083;28;20487;-80
2024/04/07 04:29:26;;;;;;;30.13;23.17;;;8.40;97.80;;;;;;5013309;28;20033;-79
2024/04/07 04:31:52;;;;;;;34.28;22.27;;;8.40;97.80;;;;;;5013082;28;20025;-79
2024/04/07 04:34:18;;;;;;;29.65;21.17;;;8.40;97.80;;;;;;5013018;28;20022;-78
2024/04/07 04:36:43;;;;;;;31.42;22.27;;;8.40;97.70;;;;;;5012902;28;20033;-78
2024/04/07 04:39:09;;;;;;;30.75;22.90;;;8.40;97.70;;;;;;4995389;28;20013;-78
2024/04/07 04:41:35;;;;;;;29.98;22.23;;;8.40;97.70;;;;;;5012813;28;20030;-78
2024/04/07 04:44:01;;;;;;;30.52;21.33;;;8.50;97.70;;;;;;5013475;28;20101;-80
2024/04/07 04:46:27;;;;;;;27.40;21.00;;;8.50;97.60;;;;;;5013246;28;20034;-77
2024/04/07 04:48:53;;;;;;;29.15;20.42;;;8.50;97.70;;;;;;5012997;28;20020;-78
2024/04/07 04:51:18;;;;;;;30.85;21.92;;;8.50;97.60;;;;;;5013068;28;20046;-80
2024/04/07 04:53:44;;;;;;;31.08;22.60;;;8.50;97.60;;;;;;4994879;28;20514;-79
2024/04/07 04:56:10;;;;;;;29.73;21.42;;;8.50;97.70;;;;;;5012779;28;20044;-79
2024/04/07 04:58:36;;;;;;;31.08;21.90;;;8.60;97.60;;;;;;5011732;28;20084;-78
2024/04/07 05:01:16;;;;;;;27.60;21.30;;;8.70;97.60;;;;;;5012802;28;20529;-80
2024/04/07 05:03:44;;;;;;;27.67;19.77;;;8.80;97.50;;;;;;5013327;28;20026;-78
2024/04/07 05:06:12;;;;;;;28.17;19.98;;;8.80;97.40;;;;;;4995805;28;20080;-80
2024/04/07 05:08:39;;;;;;;26.38;19.98;;;8.80;97.30;;;;;;5012854;28;20026;-79
2024/04/07 05:11:06;;;;;;;30.90;20.95;;;8.80;97.20;;;;;;5012519;28;20637;-80
2024/04/07 05:13:32;;;;;;;30.42;21.08;;;8.90;97.20;;;;;;5010973;28;20022;-80
2024/04/07 05:15:59;;;;;;;27.80;20.38;;;8.80;97.20;;;;;;5009898;28;20398;-79
2024/04/07 05:18:28;;;;;;;29.80;20.17;;;8.90;97.20;;;;;;5011983;28;20114;-79
2024/04/07 05:20:57;;;;;;;31.42;19.27;;;8.90;97.10;;;;;;5012593;28;20038;-79
2024/04/07 05:23:24;;;;;;;31.95;19.48;;;8.80;97.20;;;;;;5012628;28;20113;-79
2024/04/07 05:25:53;;;;;;;28.17;20.33;;;8.70;97.30;;;;;;4994472;28;20445;-78
2024/04/07 05:28:18;;;;;;;34.30;21.30;;;8.60;97.40;;;;;;5012002;28;20049;-80
2024/04/07 05:30:44;;;;;;;27.48;19.80;;;8.70;97.50;;;;;;4993371;28;20022;-79
2024/04/07 05:33:10;;;;;;;32.08;21.15;;;8.70;97.60;;;;;;5007985;28;20506;-79
2024/04/07 05:35:36;;;;;;;28.73;20.13;;;8.80;97.50;;;;;;5012291;28;20053;-79
2024/04/07 05:38:02;;;;;;;30.17;21.00;;;8.90;97.60;;;;;;5012180;28;20042;-80
2024/04/07 05:40:28;;;;;;;28.17;20.80;;;9.00;97.40;;;;;;5012143;28;20030;-80
2024/04/07 05:42:55;;;;;;;27.80;20.10;;;9.20;97.20;;;;;;5011955;28;20383;-79
2024/04/07 05:45:21;;;;;;;32.75;21.65;;;9.20;97.00;;;;;;4993784;28;20042;-80
2024/04/07 05:47:54;;;;;;;26.55;18.75;;;9.30;96.90;;;;;;5004060;28;20038;-79
2024/04/07 05:50:20;;;;;;;33.63;21.15;;;9.20;96.70;;;;;;5008144;28;20483;-78
2024/04/07 05:52:45;;;;;;;26.77;19.95;;;9.10;96.90;;;;;;5015934;28;20022;-79
2024/04/07 05:55:12;;;;;;;30.65;21.65;;;9.00;96.90;;;;;;4999249;28;20033;-79
2024/04/07 05:57:39;;;;;;;29.80;20.83;;;8.90;97.10;;;;;;5012335;28;20080;-80
2024/04/07 06:00:10;;;;;;;26.30;19.45;;;8.80;97.30;;;;;;5014360;28;20022;-80
2024/04/07 06:02:36;;;;;;;28.10;20.05;;;8.80;97.30;;;;;;5003411;28;20054;-81
2024/04/07 06:05:02;;;;;;;26.33;19.50;;;8.90;97.30;;;;;;5012155;28;20041;-81
2024/04/07 06:07:28;;;;;;;32.25;21.38;;;8.90;97.30;;;;;;5011523;28;20475;-80
2024/04/07 06:09:55;;;;;;;29.55;19.42;;;8.90;97.30;;;;;;5013426;28;20034;-79
2024/04/07 06:12:24;;;;;;;36.30;20.90;;;8.90;97.20;;;;;;4997678;28;20080;-80
2024/04/07 06:14:50;;;;;;;25.42;18.52;;;8.90;97.30;;;;;;5015323;28;20685;-81
2024/04/07 06:17:16;;;;;;;24.33;18.35;;;9.00;97.30;;;;;;5015620;28;20034;-80
2024/04/07 06:19:43;;;;;;;34.53;20.60;;;9.10;97.20;;;;;;4997626;28;20484;-80
2024/04/07 06:22:08;;;;;;;29.17;20.10;;;9.10;97.20;;;;;;5017080;28;20021;-80
2024/04/07 06:24:34;;;;;;;29.00;19.23;;;9.10;97.20;;;;;;5015101;28;20030;-79
2024/04/07 06:27:00;;;;;;;27.05;18.13;;;9.30;97.20;;;;;;5015315;28;20394;-80
2024/04/07 06:29:29;;;;;;;30.83;20.08;;;9.40;96.90;;;;;;4997548;28;20113;-81
2024/04/07 06:31:55;;;;;;;25.30;18.98;;;9.40;96.80;;;;;;5014982;28;20022;-81
2024/04/07 06:34:21;;;;;;;26.50;19.65;;;9.40;96.60;;;;;;5015267;28;20463;-80
2024/04/07 06:36:47;;;;;;;29.23;19.70;;;9.40;96.60;;;;;;4997115;28;20040;-81
2024/04/07 06:39:13;;;;;;;26.65;19.13;;;9.40;96.60;;;;;;5015291;28;20022;-80
2024/04/07 06:41:38;;;;;;;27.83;19.67;;;9.40;96.50;;;;;;5015013;28;20047;-82
2024/04/07 06:44:04;;;;;;;30.40;19.52;;;9.40;96.60;;;;;;5014902;28;20026;-78
2024/04/07 06:46:30;;;;;;;36.72;24.95;;;9.50;96.60;;;;;;5015139;28;20041;-79
2024/04/07 06:48:56;;;;;;;25.52;18.40;;;9.50;96.60;;;;;;5015307;28;20098;-79
2024/04/07 06:51:22;;;;;;;30.52;19.17;;;9.60;96.40;;;;;;5005604;28;20494;-78
2024/04/07 06:53:49;;;;;;;31.38;20.75;;;9.60;96.40;;;;;;5011749;28;20022;-79
2024/04/07 06:56:15;;;;;;;29.85;20.08;;;9.60;96.40;;;;;;5014722;28;20030;-78
2024/04/07 06:58:41;;;;;;;25.65;18.52;;;9.80;96.30;;;;;;5014130;28;20041;-80
2024/04/07 07:01:06;;;;;;;28.45;19.52;;;9.80;96.10;;;;;;4996871;28;20072;-80
2024/04/07 07:03:32;;;;;;;28.48;17.67;;;9.80;96.00;;;;;;5015297;28;20033;-80
2024/04/07 07:05:59;;;;;;;25.30;18.08;;;9.70;96.10;;;;;;5009416;28;20026;-79
2024/04/07 07:08:25;;;;;;;28.07;19.13;;;9.70;96.30;;;;;;5015577;28;20076;-80
2024/04/07 07:11:00;;;;;;;36.22;21.60;;;9.60;96.60;;;;;;5014366;28;20026;-79
2024/04/07 07:13:30;;;;;;;28.50;18.80;;;9.60;96.80;;;;;;5014428;28;20049;-81
2024/04/07 07:15:56;;;;;;;29.38;20.02;;;9.60;96.80;;;;;;5014343;28;20029;-80
2024/04/07 07:18:23;;;;;;;27.70;18.92;;;9.60;96.90;;;;;;5015137;28;20022;-80
2024/04/07 07:20:49;;;;;;;27.60;18.88;;;9.70;97.00;;;;;;5013994;28;20042;-78
2024/04/07 07:23:16;;;;;;;24.15;17.75;;;9.70;97.20;;;;;;4996313;28;20860;-79
2024/04/07 07:25:43;;;;;;;26.35;18.73;;;9.70;97.00;;;;;;5014410;28;20034;-78
2024/04/07 07:28:09;;;;;;;26.38;19.08;;;9.70;97.00;;;;;;5014231;28;20029;-80
2024/04/07 07:30:35;;;;;;;26.30;18.67;;;9.70;96.90;;;;;;4996763;28;20034;-80
2024/04/07 07:33:05;;;;;;;30.52;19.38;;;9.70;96.90;;;;;;5014231;28;20022;-80
2024/04/07 07:35:31;;;;;;;28.08;18.98;;;9.70;97.10;;;;;;5003625;28;20034;-80
2024/04/07 07:37:56;;;;;;;27.70;18.75;;;9.70;97.10;;;;;;5019824;28;20139;-80
2024/04/07 07:40:22;;;;;;;26.33;19.08;;;9.70;97.00;;;;;;5013982;28;20097;-81
2024/04/07 07:42:48;;;;;;;29.42;22.38;;;9.70;97.00;;;;;;4996061;28;20459;-80
2024/04/07 07:45:16;;;;;;;28.88;21.70;;;9.80;96.90;;;;;;5011891;28;20107;-80
2024/04/07 07:47:42;;;;;;;;;;;9.90;96.90;;;;;;5011647;28;20069;-81
2024/04/07 07:50:07;;;;;;;27.02;19.15;;;10.10;96.90;;;;;;5013247;28;20367;-80
2024/04/07 07:52:33;;;;;;;31.00;19.02;;;10.10;96.90;;;;;;5013493;28;20091;-82
2024/04/07 07:54:59;;;;;;;28.17;18.33;;;10.30;96.90;;;;;;4996373;28;20111;-81
2024/04/07 07:57:25;;;;;;;27.90;18.75;;;10.40;96.70;;;;;;4996034;28;20034;-82
2024/04/07 07:59:51;;;;;;;26.40;19.92;;;10.50;96.30;;;;;;4991595;28;20110;-79
2024/04/07 08:02:17;;;;;;;29.48;19.38;;;10.70;96.30;;;;;;5012946;28;20033;-80
2024/04/07 08:04:42;;;;;;;26.30;17.98;;;11.00;95.90;;;;;;5009534;28;20026;-82
2024/04/07 08:07:08;;;;;;;27.70;18.15;;;11.10;95.40;;;;;;5007894;28;20037;-79
2024/04/07 08:09:34;;;;;;;30.25;18.35;;;11.20;95.30;;;;;;5013178;28;20026;-78
2024/04/07 08:12:00;;;;;;;25.55;18.33;;;11.40;95.00;;;;;;5014094;28;20030;-77
2024/04/07 08:14:26;;;;;;;21.25;16.73;;;11.60;94.80;;;;;;5012830;28;20025;-77
2024/04/07 08:16:52;;;;;;;28.00;18.70;;;11.80;94.50;;;;;;5012943;28;20022;-77
2024/04/07 08:19:21;;;;;;;28.23;19.15;;;11.80;94.20;;;;;;5012862;28;20104;-77
2024/04/07 08:21:47;;;;;;;23.75;18.48;;;11.90;94.00;;;;;;5012905;28;20029;-75
2024/04/07 08:24:13;;;;;;;28.02;17.85;;;12.20;93.90;;;;;;5013515;28;20026;-76
2024/04/07 08:26:39;;;;;;;27.42;18.48;;;12.60;93.40;;;;;;5014401;28;20025;-85
2024/04/07 08:29:05;;;;;;;26.55;18.40;;;12.90;93.00;;;;;;4998445;28;20033;-83
2024/04/07 08:31:31;;;;;;;29.50;17.70;;;13.40;92.40;;;;;;4999367;28;20057;-90
2024/04/07 08:33:56;;;;;;;26.60;18.50;;;13.90;91.80;;;;;;5013241;28;20028;-82
2024/04/07 08:36:22;;;;;;;22.52;18.75;;;14.60;90.80;;;;;;5015877;28;20022;-84
2024/04/07 08:38:48;;;;;;;28.02;18.13;;;14.90;88.90;;;;;;4997382;28;20112;-83
2024/04/07 08:41:16;;;;;;;22.77;16.10;;;15.10;87.70;;;;;;4996137;28;20028;-83
2024/04/07 08:43:44;;;;;;;21.77;16.40;;;15.10;86.80;;;;;;4995480;28;20113;-81
2024/04/07 08:46:14;;;;;;;24.92;17.90;;;15.10;86.70;;;;;;5012852;28;20608;-89
2024/04/07 08:48:50;;;;;;;22.52;16.75;;;15.20;86.50;;;;;;5013547;28;20052;-86
2024/04/07 08:51:17;;;;;;;24.17;18.05;;;15.70;85.30;;;;;;4994203;28;20065;-80
2024/04/07 08:53:44;;;;;;;26.58;17.80;;;16.40;84.40;;;;;;4993955;28;20025;-80
2024/04/07 08:56:12;;;;;;;23.92;17.40;;;16.90;81.50;;;;;;5012162;28;20084;-82
2024/04/07 08:58:42;;;;;;;28.33;17.65;;;16.90;79.90;;;;;;5012026;28;20021;-80
2024/04/07 09:01:20;;;;;;;24.88;17.92;;;17.00;79.20;;;;;;5004830;28;20493;-81
2024/04/07 09:03:48;;;;;;;28.65;18.88;;;17.30;79.70;;;;;;5011729;28;20029;-81
2024/04/07 09:06:14;;;;;;;20.48;18.27;;;17.50;77.40;;;;;;5011510;28;20014;-81
2024/04/07 09:08:44;;;;;;;23.92;18.80;;;17.70;76.20;;;;;;4994024;28;20557;-79
2024/04/07 09:11:10;;;;;;;27.73;17.80;;;17.20;75.80;;;;;;5011755;28;20022;-77
2024/04/07 09:13:36;;;;;;;27.50;18.98;;;16.70;77.20;;;;;;4993770;28;20437;-75
2024/04/07 09:16:03;;;;;;;25.30;18.80;;;16.20;78.30;;;;;;5012102;28;20037;-78
2024/04/07 09:18:29;;;;;;;25.38;19.65;;;16.00;79.00;;;;;;5011479;28;20088;-80
2024/04/07 09:20:55;;;;;;;28.35;20.05;;;15.60;80.00;;;;;;5011995;28;20383;-78
2024/04/07 09:23:22;;;;;;;27.20;18.55;;;15.40;81.20;;;;;;5012069;28;20021;-77
2024/04/07 09:25:53;;;;;;;23.65;18.98;;;15.20;82.10;;;;;;5011869;28;20102;-78
2024/04/07 09:28:18;;;;;;;27.42;19.83;;;15.00;83.10;;;;;;5011868;28;20038;-79
2024/04/07 09:30:45;;;;;;;29.50;19.55;;;14.90;83.80;;;;;;4987948;28;20398;-79
2024/04/07 09:33:12;;;;;;;23.85;19.83;;;14.70;84.50;;;;;;5011434;28;20026;-78
2024/04/07 09:35:39;;;;;;;26.13;17.38;;;14.60;84.90;;;;;;4994398;28;20145;-75
2024/04/07 09:38:05;;;;;;;20.33;16.35;;;14.70;85.20;;;;;;5011729;28;20018;-80
2024/04/07 09:40:31;;;;;;;23.10;16.60;;;14.70;85.70;;;;;;5012010;28;20037;-77
2024/04/07 09:42:59;;;;;;;27.08;18.15;;;14.80;85.90;;;;;;5011756;28;20022;-77
2024/04/07 09:45:25;;;;;;;25.10;17.23;;;15.10;86.00;;;;;;5000842;28;20037;-77
2024/04/07 09:48:01;;;;;;;29.10;18.35;;;15.60;85.20;;;;;;4984632;28;20121;-77
2024/04/07 09:50:34;;;;;;;23.17;17.67;;;16.00;83.60;;;;;;5015700;28;20456;-78
2024/04/07 09:53:17;;;;;;;19.50;16.38;;;16.50;82.90;;;;;;5015782;28;20029;-77
2024/04/07 09:55:46;;;;;;;25.35;16.02;;;17.10;81.00;;;;;;5015574;28;20498;-79
2024/04/07 09:58:13;;;;;;;22.92;15.27;;;17.10;79.70;;;;;;5015432;28;20026;-77
2024/04/07 10:00:40;;;;;;;23.65;15.18;;;17.00;79.50;;;;;;5015535;28;20044;-79
2024/04/07 10:03:06;;;;;;;23.20;14.82;;;16.90;79.70;;;;;;5015174;28;20097;-78
2024/04/07 10:05:32;;;;;;;17.38;13.77;;;16.80;79.90;;;;;;5015691;28;20042;-77
2024/04/07 10:07:58;;;;;;;21.13;15.27;;;16.70;80.80;;;;;;4993413;28;20021;-78
2024/04/07 10:10:25;;;;;;;21.07;14.50;;;17.10;80.60;;;;;;4990246;28;20063;-77
2024/04/07 10:12:52;;;;;;;17.90;13.77;;;17.40;79.30;;;;;;4998258;28;20028;-79
2024/04/07 10:15:19;;;;;;;23.53;13.67;;;17.40;79.00;;;;;;5015556;28;20045;-81
2024/04/07 10:17:45;;;;;;;;;;;17.60;78.80;;;;;;5015718;28;20471;-76
2024/04/07 10:20:14;;;;;;;16.13;11.68;;;18.20;79.90;;;;;;5015526;28;20044;-79
2024/04/07 10:22:42;;;;;;;17.23;11.77;;;19.80;76.60;;;;;;5015391;28;20053;-78
2024/04/07 10:25:10;;;;;;;15.93;11.80;;;20.80;72.00;;;;;;5015277;28;20045;-79
2024/04/07 10:27:44;;;;;;;21.83;13.82;;;20.60;69.90;;;;;;5015062;28;20029;-79
2024/04/07 10:30:12;;;;;;;17.98;13.18;;;19.90;70.50;;;;;;5014921;28;20465;-80
2024/04/07 10:32:39;;;;;;;14.93;10.60;;;19.20;71.60;;;;;;4997898;28;20371;-78
2024/04/07 10:35:10;;;;;;;18.67;10.98;;;18.50;73.40;;;;;;4997167;28;20034;-80
2024/04/07 10:37:38;;;;;;;16.35;11.15;;;17.90;75.60;;;;;;4997822;28;20132;-79
2024/04/07 10:40:05;;;;;;;14.15;9.88;;;17.50;76.70;;;;;;5015005;28;20108;-80
2024/04/07 10:42:32;;;;;;;;;;;17.40;77.40;;;;;;5015496;28;20462;-79
2024/04/07 10:44:57;;;;;;;15.73;10.23;;;17.20;77.70;;;;;;5014852;28;19960;-80
2024/04/07 10:47:24;;;;;;;16.13;10.75;;;17.00;79.10;;;;;;5015168;28;20029;-80
2024/04/07 10:49:50;;;;;;;16.30;10.93;;;17.00;79.50;;;;;;4997471;28;20029;-78
2024/04/07 10:52:18;;;;;;;19.48;12.43;;;16.90;79.90;;;;;;4997866;28;20030;-78
2024/04/07 10:54:47;;;;;;;11.57;8.68;;;17.10;79.90;;;;;;5015077;28;20391;-78
2024/04/07 10:57:14;;;;;;;17.13;9.80;;;17.30;79.30;;;;;;5014623;28;20041;-79
2024/04/07 10:59:40;;;;;;;13.57;9.18;;;17.20;79.10;;;;;;5014665;28;20081;-78
2024/04/07 11:02:08;;;;;;;10.75;7.25;;;17.20;79.30;;;;;;5014538;28;20108;-78
2024/04/07 11:04:37;;;;;;;9.13;7.15;;;17.00;79.60;;;;;;5015370;28;20048;-78
2024/04/07 11:07:04;;;;;;;15.75;10.32;;;16.80;80.30;;;;;;5013397;28;20632;-77
2024/04/07 11:09:31;;;;;;;11.50;8.27;;;16.80;81.00;;;;;;5014406;28;20017;-76
2024/04/07 11:11:58;;;;;;;12.05;8.20;;;16.80;80.60;;;;;;4997143;28;20378;-86
2024/04/07 11:14:29;;;;;;;17.88;8.52;;;16.70;81.10;;;;;;5007140;28;20021;-75
2024/04/07 11:16:55;;;;;;;18.77;7.90;;;16.70;81.50;;;;;;5014231;28;20030;-77
2024/04/07 11:19:25;;;;;;;8.70;5.97;;;16.80;81.00;;;;;;5013995;28;20054;-78
2024/04/07 11:21:51;;;;;;;10.60;6.00;;;16.80;80.70;;;;;;5014004;28;20038;-79
2024/04/07 11:24:18;;;;;;;12.75;6.05;;;16.70;80.50;;;;;;5013957;28;20018;-74
2024/04/07 11:26:49;;;;;;;7.95;5.63;;;16.60;79.90;;;;;;5013867;28;20026;-76
2024/04/07 11:29:21;;;;;;;10.70;6.60;;;16.30;80.80;;;;;;5014005;28;20022;-74
2024/04/07 11:31:54;;;;;;;7.68;6.07;;;16.20;81.30;;;;;;5013569;28;20096;-76
2024/04/07 11:34:25;;;;;;;12.48;6.95;;;16.30;81.30;;;;;;5014301;28;20025;-74
2024/04/07 11:36:53;;;;;;;10.07;5.85;;;16.40;81.10;;;;;;5013650;28;20030;-76
2024/04/07 11:39:20;;;;;;;10.55;6.35;;;16.30;80.80;;;;;;5005020;28;20109;-76
2024/04/07 11:41:46;;;;;;;15.38;5.72;;;16.30;81.20;;;;;;4996155;28;20256;-84
2024/04/07 11:44:12;;;;;;;10.75;6.18;;;16.40;81.40;;;;;;4995876;28;20076;-77
2024/04/07 11:46:39;;;;;;;12.23;5.75;;;16.40;81.30;;;;;;5013323;28;20026;-79
2024/04/07 11:49:05;;;;;;;11.10;6.13;;;16.60;80.80;;;;;;5013603;28;20434;-77
2024/04/07 11:51:31;;;;;;;14.73;8.18;;;16.70;80.40;;;;;;5013855;28;20026;-79
2024/04/07 11:53:57;;;;;;;15.38;8.13;;;16.70;80.30;;;;;;5013112;28;20072;-78
2024/04/07 11:56:24;;;;;;;9.93;6.63;;;16.90;81.80;;;;;;5013707;28;20042;-79
2024/04/07 11:58:50;;;;;;;16.27;7.25;;;17.10;80.10;;;;;;4995407;28;20018;-77
2024/04/07 12:01:16;;;;;;;10.70;6.75;;;17.10;78.90;;;;;;5013251;28;20087;-79
2024/04/07 12:03:42;;;;;;;8.32;6.55;;;17.10;78.70;;;;;;5012983;28;20026;-79
2024/04/07 12:06:08;;;;;;;10.25;7.00;;;17.10;78.70;;;;;;5012516;28;20068;-78
2024/04/07 12:08:35;;;;;;;11.43;6.53;;;17.10;78.70;;;;;;4990672;28;20514;-80
2024/04/07 12:11:04;;;;;;;10.07;6.18;;;17.10;78.90;;;;;;5011891;28;20551;-78
2024/04/07 12:13:30;;;;;;;13.70;7.20;;;17.10;80.50;;;;;;5013096;28;20045;-78
2024/04/07 12:15:56;;;;;;;21.58;11.65;;;17.10;79.10;;;;;;5012993;28;20038;-78
2024/04/07 12:18:21;;;;;;;11.38;5.95;;;17.00;79.00;;;;;;4995396;28;20439;-78
2024/04/07 12:20:47;;;;;;;10.75;6.55;;;16.90;79.00;;;;;;5013014;28;20037;-78
2024/04/07 12:23:13;;;;;;;11.02;5.22;;;16.90;79.20;;;;;;5012990;28;20809;-77
2024/04/07 12:25:39;;;;;;;7.47;4.88;;;16.60;79.20;;;;;;5013091;28;20026;-78
2024/04/07 12:28:05;;;;;;;7.68;5.88;;;16.30;79.90;;;;;;5012604;28;20112;-77
2024/04/07 12:30:31;;;;;;;8.18;4.85;;;16.10;80.70;;;;;;5012781;28;20033;-80
2024/04/07 12:32:56;;;;;;;13.68;5.45;;;15.90;81.40;;;;;;5012972;28;20026;-86
2024/04/07 12:35:22;;;;;;;9.50;6.72;;;15.70;82.10;;;;;;5016987;28;20038;-85